sensor_id;sensor_type;location;lat;lon;timestamp;P1;durP1;ratioP1;P2;durP2;ratioP2
17564;SDS011;62994;52.126;5.596;2022-11-11T00:01:03;7.43;;;6.60;;
17564;SDS011;62994;52.126;5.596;2022-11-11T00:03:31;11.05;;;6.65;;
17564;SDS011;62994;52.126;5.596;2022-11-11T00:05:59;15.25;;;7.28;;
17564;SDS011;62994;52.126;5.596;2022-11-11T00:08:27;9.13;;;6.47;;
17564;SDS011;62994;52.126;5.596;2022-11-11T00:11:00;9.90;;;7.25;;
17564;SDS011;62994;52.126;5.596;2022-11-11T00:13:27;8.85;;;6.88;;
17564;SDS011;62994;52.126;5.596;2022-11-11T00:15:55;7.75;;;7.03;;
17564;SDS011;62994;52.126;5.596;2022-11-11T00:18:22;10.25;;;7.40;;
17564;SDS011;62994;52.126;5.596;2022-11-11T00:21:11;10.70;;;7.55;;
17564;SDS011;62994;52.126;5.596;2022-11-11T00:23:56;13.75;;;9.23;;
17564;SDS011;62994;52.126;5.596;2022-11-11T00:26:41;15.75;;;9.38;;
17564;SDS011;62994;52.126;5.596;2022-11-11T00:29:11;11.95;;;9.75;;
17564;SDS011;62994;52.126;5.596;2022-11-11T00:31:50;14.05;;;10.60;;
17564;SDS011;62994;52.126;5.596;2022-11-11T00:34:35;13.85;;;10.45;;
17564;SDS011;62994;52.126;5.596;2022-11-11T00:37:02;13.52;;;10.00;;
17564;SDS011;62994;52.126;5.596;2022-11-11T00:39:27;15.70;;;10.90;;
17564;SDS011;62994;52.126;5.596;2022-11-11T00:42:02;13.38;;;10.68;;
17564;SDS011;62994;52.126;5.596;2022-11-11T00:44:29;16.20;;;10.82;;
17564;SDS011;62994;52.126;5.596;2022-11-11T00:46:56;13.27;;;11.45;;
17564;SDS011;62994;52.126;5.596;2022-11-11T00:49:40;18.00;;;11.80;;
17564;SDS011;62994;52.126;5.596;2022-11-11T00:52:24;16.10;;;12.80;;
17564;SDS011;62994;52.126;5.596;2022-11-11T00:54:51;16.02;;;12.30;;
17564;SDS011;62994;52.126;5.596;2022-11-11T00:57:19;17.67;;;13.63;;
17564;SDS011;62994;52.126;5.596;2022-11-11T00:59:46;16.10;;;13.50;;
17564;SDS011;62994;52.126;5.596;2022-11-11T01:02:13;14.95;;;13.48;;
17564;SDS011;62994;52.126;5.596;2022-11-11T01:04:40;23.88;;;14.10;;
17564;SDS011;62994;52.126;5.596;2022-11-11T01:07:10;17.67;;;13.75;;
17564;SDS011;62994;52.126;5.596;2022-11-11T01:09:37;17.58;;;12.82;;
17564;SDS011;62994;52.126;5.596;2022-11-11T01:12:09;18.85;;;13.65;;
17564;SDS011;62994;52.126;5.596;2022-11-11T01:14:42;18.55;;;14.30;;
17564;SDS011;62994;52.126;5.596;2022-11-11T01:17:09;19.02;;;14.85;;
17564;SDS011;62994;52.126;5.596;2022-11-11T01:19:36;21.15;;;15.48;;
17564;SDS011;62994;52.126;5.596;2022-11-11T01:22:03;21.67;;;15.02;;
17564;SDS011;62994;52.126;5.596;2022-11-11T01:24:30;19.98;;;14.88;;
17564;SDS011;62994;52.126;5.596;2022-11-11T01:26:57;19.23;;;15.68;;
17564;SDS011;62994;52.126;5.596;2022-11-11T01:29:24;20.85;;;16.38;;
17564;SDS011;62994;52.126;5.596;2022-11-11T01:31:52;19.77;;;16.20;;
17564;SDS011;62994;52.126;5.596;2022-11-11T01:34:19;23.27;;;16.45;;
17564;SDS011;62994;52.126;5.596;2022-11-11T01:36:46;23.30;;;17.13;;
17564;SDS011;62994;52.126;5.596;2022-11-11T01:39:13;19.65;;;15.88;;
17564;SDS011;62994;52.126;5.596;2022-11-11T01:41:40;19.83;;;15.75;;
17564;SDS011;62994;52.126;5.596;2022-11-11T01:44:15;23.35;;;15.98;;
17564;SDS011;62994;52.126;5.596;2022-11-11T01:46:46;26.83;;;17.50;;
17564;SDS011;62994;52.126;5.596;2022-11-11T01:49:26;19.63;;;17.20;;
17564;SDS011;62994;52.126;5.596;2022-11-11T01:51:56;22.15;;;18.10;;
17564;SDS011;62994;52.126;5.596;2022-11-11T01:54:29;23.92;;;16.90;;
17564;SDS011;62994;52.126;5.596;2022-11-11T01:56:59;24.55;;;16.33;;
17564;SDS011;62994;52.126;5.596;2022-11-11T01:59:31;20.80;;;17.33;;
17564;SDS011;62994;52.126;5.596;2022-11-11T02:01:59;19.70;;;16.35;;
17564;SDS011;62994;52.126;5.596;2022-11-11T02:04:32;22.75;;;18.13;;
17564;SDS011;62994;52.126;5.596;2022-11-11T02:07:18;25.00;;;18.85;;
17564;SDS011;62994;52.126;5.596;2022-11-11T02:09:46;22.23;;;17.30;;
17564;SDS011;62994;52.126;5.596;2022-11-11T02:12:14;26.40;;;17.77;;
17564;SDS011;62994;52.126;5.596;2022-11-11T02:14:58;20.45;;;17.60;;
17564;SDS011;62994;52.126;5.596;2022-11-11T02:17:31;25.90;;;18.00;;
17564;SDS011;62994;52.126;5.596;2022-11-11T02:20:00;27.08;;;17.83;;
17564;SDS011;62994;52.126;5.596;2022-11-11T02:22:30;20.63;;;17.13;;
17564;SDS011;62994;52.126;5.596;2022-11-11T02:25:06;22.90;;;17.63;;
17564;SDS011;62994;52.126;5.596;2022-11-11T02:27:37;23.77;;;18.25;;
17564;SDS011;62994;52.126;5.596;2022-11-11T02:30:07;28.42;;;18.55;;
17564;SDS011;62994;52.126;5.596;2022-11-11T02:32:39;26.05;;;18.13;;
17564;SDS011;62994;52.126;5.596;2022-11-11T02:35:10;25.67;;;18.02;;
17564;SDS011;62994;52.126;5.596;2022-11-11T02:37:39;24.50;;;17.88;;
17564;SDS011;62994;52.126;5.596;2022-11-11T02:40:10;25.33;;;19.05;;
17564;SDS011;62994;52.126;5.596;2022-11-11T02:42:39;29.13;;;18.60;;
17564;SDS011;62994;52.126;5.596;2022-11-11T02:45:08;26.65;;;17.83;;
17564;SDS011;62994;52.126;5.596;2022-11-11T02:47:35;22.52;;;17.92;;
17564;SDS011;62994;52.126;5.596;2022-11-11T02:50:03;30.80;;;17.88;;
17564;SDS011;62994;52.126;5.596;2022-11-11T02:52:30;30.45;;;18.67;;
17564;SDS011;62994;52.126;5.596;2022-11-11T02:54:57;23.67;;;17.35;;
17564;SDS011;62994;52.126;5.596;2022-11-11T02:57:25;23.60;;;17.50;;
17564;SDS011;62994;52.126;5.596;2022-11-11T02:59:53;20.30;;;16.33;;
17564;SDS011;62994;52.126;5.596;2022-11-11T03:02:20;23.95;;;17.60;;
17564;SDS011;62994;52.126;5.596;2022-11-11T03:04:51;25.17;;;18.35;;
17564;SDS011;62994;52.126;5.596;2022-11-11T03:07:18;21.98;;;16.35;;
17564;SDS011;62994;52.126;5.596;2022-11-11T03:09:45;24.25;;;16.45;;
17564;SDS011;62994;52.126;5.596;2022-11-11T03:12:13;22.08;;;15.65;;
17564;SDS011;62994;52.126;5.596;2022-11-11T03:14:41;19.55;;;15.82;;
17564;SDS011;62994;52.126;5.596;2022-11-11T03:17:10;24.20;;;15.95;;
17564;SDS011;62994;52.126;5.596;2022-11-11T03:19:54;19.15;;;15.18;;
17564;SDS011;62994;52.126;5.596;2022-11-11T03:22:42;18.27;;;14.75;;
17564;SDS011;62994;52.126;5.596;2022-11-11T03:25:08;19.75;;;15.80;;
17564;SDS011;62994;52.126;5.596;2022-11-11T03:27:52;17.83;;;15.68;;
17564;SDS011;62994;52.126;5.596;2022-11-11T03:30:21;20.17;;;15.60;;
17564;SDS011;62994;52.126;5.596;2022-11-11T03:32:48;21.38;;;15.02;;
17564;SDS011;62994;52.126;5.596;2022-11-11T03:35:15;21.90;;;16.02;;
17564;SDS011;62994;52.126;5.596;2022-11-11T03:37:50;22.73;;;14.80;;
17564;SDS011;62994;52.126;5.596;2022-11-11T03:40:34;20.48;;;14.65;;
17564;SDS011;62994;52.126;5.596;2022-11-11T03:43:01;24.60;;;15.55;;
17564;SDS011;62994;52.126;5.596;2022-11-11T03:45:29;17.35;;;15.05;;
17564;SDS011;62994;52.126;5.596;2022-11-11T03:47:56;21.17;;;15.15;;
17564;SDS011;62994;52.126;5.596;2022-11-11T03:50:23;22.08;;;14.80;;
17564;SDS011;62994;52.126;5.596;2022-11-11T03:52:50;31.85;;;15.60;;
17564;SDS011;62994;52.126;5.596;2022-11-11T03:55:17;22.63;;;14.77;;
17564;SDS011;62994;52.126;5.596;2022-11-11T03:57:45;18.02;;;14.50;;
17564;SDS011;62994;52.126;5.596;2022-11-11T04:00:14;19.60;;;14.73;;
17564;SDS011;62994;52.126;5.596;2022-11-11T04:02:43;25.90;;;15.55;;
17564;SDS011;62994;52.126;5.596;2022-11-11T04:05:27;16.02;;;13.65;;
17564;SDS011;62994;52.126;5.596;2022-11-11T04:08:17;17.83;;;14.77;;
17564;SDS011;62994;52.126;5.596;2022-11-11T04:11:03;22.25;;;14.52;;
17564;SDS011;62994;52.126;5.596;2022-11-11T04:13:32;18.55;;;14.45;;
17564;SDS011;62994;52.126;5.596;2022-11-11T04:16:17;26.85;;;14.65;;
17564;SDS011;62994;52.126;5.596;2022-11-11T04:18:46;21.02;;;14.57;;
17564;SDS011;62994;52.126;5.596;2022-11-11T04:21:30;17.17;;;15.13;;
17564;SDS011;62994;52.126;5.596;2022-11-11T04:24:09;17.58;;;14.57;;
17564;SDS011;62994;52.126;5.596;2022-11-11T04:26:54;21.02;;;15.52;;
17564;SDS011;62994;52.126;5.596;2022-11-11T04:29:23;16.42;;;14.43;;
17564;SDS011;62994;52.126;5.596;2022-11-11T04:31:56;22.85;;;15.25;;
17564;SDS011;62994;52.126;5.596;2022-11-11T04:34:43;24.52;;;15.77;;
17564;SDS011;62994;52.126;5.596;2022-11-11T04:37:11;19.73;;;15.32;;
17564;SDS011;62994;52.126;5.596;2022-11-11T04:39:39;23.60;;;14.68;;
17564;SDS011;62994;52.126;5.596;2022-11-11T04:42:24;17.58;;;14.70;;
17564;SDS011;62994;52.126;5.596;2022-11-11T04:44:51;17.25;;;14.68;;
17564;SDS011;62994;52.126;5.596;2022-11-11T04:47:35;20.38;;;14.10;;
17564;SDS011;62994;52.126;5.596;2022-11-11T04:50:04;16.10;;;14.38;;
17564;SDS011;62994;52.126;5.596;2022-11-11T04:52:34;17.60;;;14.18;;
17564;SDS011;62994;52.126;5.596;2022-11-11T04:55:01;15.88;;;13.70;;
17564;SDS011;62994;52.126;5.596;2022-11-11T04:57:46;18.77;;;14.55;;
17564;SDS011;62994;52.126;5.596;2022-11-11T05:00:14;15.82;;;14.13;;
17564;SDS011;62994;52.126;5.596;2022-11-11T05:02:43;16.60;;;14.13;;
17564;SDS011;62994;52.126;5.596;2022-11-11T05:05:29;20.90;;;13.63;;
17564;SDS011;62994;52.126;5.596;2022-11-11T05:08:17;17.00;;;13.90;;
17564;SDS011;62994;52.126;5.596;2022-11-11T05:11:02;17.65;;;13.80;;
17564;SDS011;62994;52.126;5.596;2022-11-11T05:13:28;20.70;;;14.25;;
17564;SDS011;62994;52.126;5.596;2022-11-11T05:16:14;15.15;;;13.05;;
17564;SDS011;62994;52.126;5.596;2022-11-11T05:19:01;16.75;;;12.40;;
17564;SDS011;62994;52.126;5.596;2022-11-11T05:21:47;15.27;;;12.90;;
17564;SDS011;62994;52.126;5.596;2022-11-11T05:24:14;18.63;;;13.30;;
17564;SDS011;62994;52.126;5.596;2022-11-11T05:26:58;16.45;;;12.50;;
17564;SDS011;62994;52.126;5.596;2022-11-11T05:29:25;18.13;;;11.70;;
17564;SDS011;62994;52.126;5.596;2022-11-11T05:31:52;15.00;;;12.35;;
17564;SDS011;62994;52.126;5.596;2022-11-11T05:34:19;15.80;;;12.60;;
17564;SDS011;62994;52.126;5.596;2022-11-11T05:36:47;13.95;;;12.55;;
17564;SDS011;62994;52.126;5.596;2022-11-11T05:39:21;16.23;;;12.48;;
17564;SDS011;62994;52.126;5.596;2022-11-11T05:41:48;19.25;;;12.82;;
17564;SDS011;62994;52.126;5.596;2022-11-11T05:44:16;16.98;;;12.57;;
17564;SDS011;62994;52.126;5.596;2022-11-11T05:46:43;16.25;;;12.13;;
17564;SDS011;62994;52.126;5.596;2022-11-11T05:49:10;16.10;;;11.80;;
17564;SDS011;62994;52.126;5.596;2022-11-11T05:51:43;15.18;;;12.38;;
17564;SDS011;62994;52.126;5.596;2022-11-11T05:54:11;17.85;;;12.48;;
17564;SDS011;62994;52.126;5.596;2022-11-11T05:56:39;19.40;;;12.50;;
17564;SDS011;62994;52.126;5.596;2022-11-11T05:59:06;14.30;;;11.73;;
17564;SDS011;62994;52.126;5.596;2022-11-11T06:01:33;15.63;;;12.52;;
17564;SDS011;62994;52.126;5.596;2022-11-11T06:04:01;17.27;;;12.63;;
17564;SDS011;62994;52.126;5.596;2022-11-11T06:06:28;16.85;;;12.00;;
17564;SDS011;62994;52.126;5.596;2022-11-11T06:08:55;14.18;;;11.88;;
17564;SDS011;62994;52.126;5.596;2022-11-11T06:11:24;19.77;;;11.95;;
17564;SDS011;62994;52.126;5.596;2022-11-11T06:13:52;12.93;;;11.60;;
17564;SDS011;62994;52.126;5.596;2022-11-11T06:16:22;14.07;;;11.02;;
17564;SDS011;62994;52.126;5.596;2022-11-11T06:18:49;14.88;;;11.57;;
17564;SDS011;62994;52.126;5.596;2022-11-11T06:21:16;15.05;;;11.43;;
17564;SDS011;62994;52.126;5.596;2022-11-11T06:23:44;13.15;;;11.48;;
17564;SDS011;62994;52.126;5.596;2022-11-11T06:26:12;15.65;;;12.15;;
17564;SDS011;62994;52.126;5.596;2022-11-11T06:28:41;13.05;;;11.50;;
17564;SDS011;62994;52.126;5.596;2022-11-11T06:31:09;14.95;;;11.75;;
17564;SDS011;62994;52.126;5.596;2022-11-11T06:33:38;13.70;;;11.63;;
17564;SDS011;62994;52.126;5.596;2022-11-11T06:36:05;13.38;;;11.30;;
17564;SDS011;62994;52.126;5.596;2022-11-11T06:38:33;12.52;;;11.25;;
17564;SDS011;62994;52.126;5.596;2022-11-11T06:41:00;17.42;;;11.95;;
17564;SDS011;62994;52.126;5.596;2022-11-11T06:43:27;14.68;;;11.38;;
17564;SDS011;62994;52.126;5.596;2022-11-11T06:45:55;12.10;;;10.88;;
17564;SDS011;62994;52.126;5.596;2022-11-11T06:48:24;12.05;;;11.02;;
17564;SDS011;62994;52.126;5.596;2022-11-11T06:50:52;16.30;;;11.32;;
17564;SDS011;62994;52.126;5.596;2022-11-11T06:53:20;15.07;;;10.95;;
17564;SDS011;62994;52.126;5.596;2022-11-11T06:55:50;15.23;;;11.65;;
17564;SDS011;62994;52.126;5.596;2022-11-11T06:58:18;15.18;;;12.05;;
17564;SDS011;62994;52.126;5.596;2022-11-11T07:00:46;19.00;;;11.80;;
17564;SDS011;62994;52.126;5.596;2022-11-11T07:03:16;12.63;;;11.27;;
17564;SDS011;62994;52.126;5.596;2022-11-11T07:05:44;13.07;;;11.15;;
17564;SDS011;62994;52.126;5.596;2022-11-11T07:08:12;13.00;;;11.65;;
17564;SDS011;62994;52.126;5.596;2022-11-11T07:10:42;12.10;;;10.95;;
17564;SDS011;62994;52.126;5.596;2022-11-11T07:13:10;20.10;;;12.10;;
17564;SDS011;62994;52.126;5.596;2022-11-11T07:15:38;15.20;;;12.13;;
17564;SDS011;62994;52.126;5.596;2022-11-11T07:18:05;13.73;;;10.77;;
17564;SDS011;62994;52.126;5.596;2022-11-11T07:20:34;12.38;;;11.10;;
17564;SDS011;62994;52.126;5.596;2022-11-11T07:23:02;12.80;;;10.85;;
17564;SDS011;62994;52.126;5.596;2022-11-11T07:25:29;13.07;;;11.27;;
17564;SDS011;62994;52.126;5.596;2022-11-11T07:27:57;17.05;;;12.48;;
17564;SDS011;62994;52.126;5.596;2022-11-11T07:30:24;12.82;;;11.63;;
17564;SDS011;62994;52.126;5.596;2022-11-11T07:32:52;13.20;;;11.77;;
17564;SDS011;62994;52.126;5.596;2022-11-11T07:35:19;14.43;;;12.07;;
17564;SDS011;62994;52.126;5.596;2022-11-11T07:37:48;17.55;;;12.77;;
17564;SDS011;62994;52.126;5.596;2022-11-11T07:40:16;16.98;;;13.20;;
17564;SDS011;62994;52.126;5.596;2022-11-11T07:42:46;16.17;;;12.90;;
17564;SDS011;62994;52.126;5.596;2022-11-11T07:45:13;19.63;;;12.98;;
17564;SDS011;62994;52.126;5.596;2022-11-11T07:47:43;16.60;;;12.93;;
17564;SDS011;62994;52.126;5.596;2022-11-11T07:50:11;18.33;;;13.25;;
17564;SDS011;62994;52.126;5.596;2022-11-11T07:52:38;13.23;;;11.88;;
17564;SDS011;62994;52.126;5.596;2022-11-11T07:55:07;17.15;;;12.98;;
17564;SDS011;62994;52.126;5.596;2022-11-11T07:57:34;15.30;;;12.05;;
17564;SDS011;62994;52.126;5.596;2022-11-11T08:00:03;15.70;;;12.07;;
17564;SDS011;62994;52.126;5.596;2022-11-11T08:02:30;15.23;;;12.90;;
17564;SDS011;62994;52.126;5.596;2022-11-11T08:04:57;14.15;;;12.68;;
17564;SDS011;62994;52.126;5.596;2022-11-11T08:07:24;16.10;;;11.85;;
17564;SDS011;62994;52.126;5.596;2022-11-11T08:09:51;14.52;;;11.60;;
17564;SDS011;62994;52.126;5.596;2022-11-11T08:12:20;15.88;;;12.02;;
17564;SDS011;62994;52.126;5.596;2022-11-11T08:15:04;17.77;;;12.27;;
17564;SDS011;62994;52.126;5.596;2022-11-11T08:17:35;14.52;;;11.85;;
17564;SDS011;62994;52.126;5.596;2022-11-11T08:20:03;16.15;;;11.50;;
17564;SDS011;62994;52.126;5.596;2022-11-11T08:22:34;15.43;;;11.65;;
17564;SDS011;62994;52.126;5.596;2022-11-11T08:25:04;13.13;;;11.77;;
17564;SDS011;62994;52.126;5.596;2022-11-11T08:27:34;13.32;;;11.07;;
17564;SDS011;62994;52.126;5.596;2022-11-11T08:30:02;14.13;;;11.60;;
17564;SDS011;62994;52.126;5.596;2022-11-11T08:32:31;17.25;;;11.82;;
17564;SDS011;62994;52.126;5.596;2022-11-11T08:34:58;14.95;;;11.48;;
17564;SDS011;62994;52.126;5.596;2022-11-11T08:37:25;16.00;;;11.05;;
17564;SDS011;62994;52.126;5.596;2022-11-11T08:39:53;13.65;;;12.35;;
17564;SDS011;62994;52.126;5.596;2022-11-11T08:42:21;12.25;;;11.05;;
17564;SDS011;62994;52.126;5.596;2022-11-11T08:44:49;18.50;;;11.98;;
17564;SDS011;62994;52.126;5.596;2022-11-11T08:47:16;12.10;;;11.10;;
17564;SDS011;62994;52.126;5.596;2022-11-11T08:49:44;13.25;;;10.65;;
17564;SDS011;62994;52.126;5.596;2022-11-11T08:52:13;15.05;;;11.23;;
17564;SDS011;62994;52.126;5.596;2022-11-11T08:54:41;17.10;;;11.15;;
17564;SDS011;62994;52.126;5.596;2022-11-11T08:57:08;14.55;;;11.00;;
17564;SDS011;62994;52.126;5.596;2022-11-11T08:59:37;11.43;;;10.45;;
17564;SDS011;62994;52.126;5.596;2022-11-11T09:02:07;18.92;;;11.30;;
17564;SDS011;62994;52.126;5.596;2022-11-11T09:04:38;12.68;;;10.35;;
17564;SDS011;62994;52.126;5.596;2022-11-11T09:07:08;11.90;;;10.70;;
17564;SDS011;62994;52.126;5.596;2022-11-11T09:09:36;11.55;;;10.30;;
17564;SDS011;62994;52.126;5.596;2022-11-11T09:12:04;12.15;;;10.90;;
17564;SDS011;62994;52.126;5.596;2022-11-11T09:14:31;11.52;;;10.30;;
17564;SDS011;62994;52.126;5.596;2022-11-11T09:17:15;12.80;;;11.63;;
17564;SDS011;62994;52.126;5.596;2022-11-11T09:20:04;13.10;;;10.70;;
17564;SDS011;62994;52.126;5.596;2022-11-11T09:22:42;14.40;;;10.77;;
17564;SDS011;62994;52.126;5.596;2022-11-11T09:25:22;11.15;;;10.25;;
17564;SDS011;62994;52.126;5.596;2022-11-11T09:27:59;12.18;;;11.18;;
17564;SDS011;62994;52.126;5.596;2022-11-11T09:30:49;13.52;;;10.18;;
17564;SDS011;62994;52.126;5.596;2022-11-11T09:33:26;15.10;;;11.20;;
17564;SDS011;62994;52.126;5.596;2022-11-11T09:35:59;11.98;;;10.80;;
17564;SDS011;62994;52.126;5.596;2022-11-11T09:38:36;11.82;;;10.65;;
17564;SDS011;62994;52.126;5.596;2022-11-11T09:41:17;13.50;;;10.82;;
17564;SDS011;62994;52.126;5.596;2022-11-11T09:43:55;12.23;;;10.90;;
17564;SDS011;62994;52.126;5.596;2022-11-11T09:46:40;12.23;;;11.13;;
17564;SDS011;62994;52.126;5.596;2022-11-11T09:49:35;11.95;;;11.02;;
17564;SDS011;62994;52.126;5.596;2022-11-11T09:52:20;12.35;;;11.25;;
17564;SDS011;62994;52.126;5.596;2022-11-11T09:54:55;12.10;;;10.73;;
17564;SDS011;62994;52.126;5.596;2022-11-11T09:57:33;11.57;;;10.57;;
17564;SDS011;62994;52.126;5.596;2022-11-11T10:00:34;12.23;;;10.45;;
17564;SDS011;62994;52.126;5.596;2022-11-11T10:03:10;13.02;;;11.73;;
17564;SDS011;62994;52.126;5.596;2022-11-11T10:06:12;11.90;;;10.90;;
17564;SDS011;62994;52.126;5.596;2022-11-11T10:08:53;13.15;;;11.95;;
17564;SDS011;62994;52.126;5.596;2022-11-11T10:11:35;16.63;;;14.27;;
17564;SDS011;62994;52.126;5.596;2022-11-11T10:14:16;15.85;;;14.25;;
17564;SDS011;62994;52.126;5.596;2022-11-11T10:17:02;16.25;;;13.32;;
17564;SDS011;62994;52.126;5.596;2022-11-11T10:19:48;13.23;;;11.98;;
17564;SDS011;62994;52.126;5.596;2022-11-11T10:22:42;12.93;;;11.63;;
17564;SDS011;62994;52.126;5.596;2022-11-11T10:25:20;11.73;;;10.65;;
17564;SDS011;62994;52.126;5.596;2022-11-11T10:28:00;11.52;;;10.55;;
17564;SDS011;62994;52.126;5.596;2022-11-11T10:30:45;14.63;;;11.32;;
17564;SDS011;62994;52.126;5.596;2022-11-11T10:33:18;12.93;;;11.60;;
17564;SDS011;62994;52.126;5.596;2022-11-11T10:36:22;13.82;;;11.73;;
17564;SDS011;62994;52.126;5.596;2022-11-11T10:42:19;11.95;;;10.95;;
17564;SDS011;62994;52.126;5.596;2022-11-11T10:45:07;12.75;;;11.57;;
17564;SDS011;62994;52.126;5.596;2022-11-11T10:48:00;10.73;;;9.68;;
17564;SDS011;62994;52.126;5.596;2022-11-11T10:50:37;9.90;;;9.18;;
17564;SDS011;62994;52.126;5.596;2022-11-11T10:53:11;11.27;;;9.48;;
17564;SDS011;62994;52.126;5.596;2022-11-11T10:55:59;10.73;;;9.45;;
17564;SDS011;62994;52.126;5.596;2022-11-11T10:58:45;10.73;;;9.77;;
17564;SDS011;62994;52.126;5.596;2022-11-11T11:01:35;11.23;;;10.13;;
17564;SDS011;62994;52.126;5.596;2022-11-11T11:08:44;10.80;;;9.70;;
17564;SDS011;62994;52.126;5.596;2022-11-11T11:11:32;8.98;;;8.38;;
17564;SDS011;62994;52.126;5.596;2022-11-11T11:14:17;10.10;;;9.15;;
17564;SDS011;62994;52.126;5.596;2022-11-11T11:17:07;9.43;;;8.63;;
17564;SDS011;62994;52.126;5.596;2022-11-11T11:22:51;9.27;;;8.57;;
17564;SDS011;62994;52.126;5.596;2022-11-11T11:25:31;8.98;;;8.27;;
17564;SDS011;62994;52.126;5.596;2022-11-11T11:31:38;9.07;;;8.48;;
17564;SDS011;62994;52.126;5.596;2022-11-11T11:34:41;9.60;;;8.65;;
17564;SDS011;62994;52.126;5.596;2022-11-11T11:37:22;9.27;;;8.40;;
17564;SDS011;62994;52.126;5.596;2022-11-11T11:39:58;10.35;;;9.35;;
17564;SDS011;62994;52.126;5.596;2022-11-11T11:42:45;8.98;;;8.10;;
17564;SDS011;62994;52.126;5.596;2022-11-11T11:45:33;9.57;;;8.65;;
17564;SDS011;62994;52.126;5.596;2022-11-11T11:51:42;9.82;;;8.75;;
17564;SDS011;62994;52.126;5.596;2022-11-11T11:54:40;8.50;;;7.80;;
17564;SDS011;62994;52.126;5.596;2022-11-11T12:00:49;10.13;;;9.13;;
17564;SDS011;62994;52.126;5.596;2022-11-11T12:06:51;9.05;;;8.45;;
17564;SDS011;62994;52.126;5.596;2022-11-11T12:09:34;10.82;;;9.02;;
17564;SDS011;62994;52.126;5.596;2022-11-11T12:12:15;8.57;;;8.07;;
17564;SDS011;62994;52.126;5.596;2022-11-11T12:15:29;8.90;;;8.13;;
17564;SDS011;62994;52.126;5.596;2022-11-11T12:18:17;8.40;;;7.63;;
17564;SDS011;62994;52.126;5.596;2022-11-11T12:21:08;10.60;;;9.30;;
17564;SDS011;62994;52.126;5.596;2022-11-11T12:23:49;8.35;;;7.75;;
17564;SDS011;62994;52.126;5.596;2022-11-11T12:26:33;9.50;;;8.65;;
17564;SDS011;62994;52.126;5.596;2022-11-11T12:32:20;10.07;;;9.13;;
17564;SDS011;62994;52.126;5.596;2022-11-11T12:38:52;9.50;;;8.35;;
17564;SDS011;62994;52.126;5.596;2022-11-11T12:41:42;8.77;;;8.18;;
17564;SDS011;62994;52.126;5.596;2022-11-11T12:45:38;9.05;;;8.15;;
17564;SDS011;62994;52.126;5.596;2022-11-11T12:47:45;8.15;;;7.60;;
17564;SDS011;62994;52.126;5.596;2022-11-11T12:50:28;9.68;;;8.75;;
17564;SDS011;62994;52.126;5.596;2022-11-11T12:53:36;8.85;;;8.07;;
17564;SDS011;62994;52.126;5.596;2022-11-11T12:56:44;8.45;;;7.78;;
17564;SDS011;62994;52.126;5.596;2022-11-11T12:59:31;8.45;;;7.85;;
17564;SDS011;62994;52.126;5.596;2022-11-11T13:02:23;8.60;;;7.78;;
17564;SDS011;62994;52.126;5.596;2022-11-11T13:05:11;9.32;;;7.93;;
17564;SDS011;62994;52.126;5.596;2022-11-11T13:11:15;8.63;;;7.88;;
17564;SDS011;62994;52.126;5.596;2022-11-11T13:14:09;8.77;;;8.07;;
17564;SDS011;62994;52.126;5.596;2022-11-11T13:17:05;8.30;;;7.50;;
17564;SDS011;62994;52.126;5.596;2022-11-11T13:20:11;8.45;;;7.72;;
17564;SDS011;62994;52.126;5.596;2022-11-11T13:23:20;8.60;;;7.43;;
17564;SDS011;62994;52.126;5.596;2022-11-11T13:25:56;7.68;;;7.28;;
17564;SDS011;62994;52.126;5.596;2022-11-11T13:28:48;7.85;;;7.25;;
17564;SDS011;62994;52.126;5.596;2022-11-11T13:34:36;8.13;;;7.63;;
17564;SDS011;62994;52.126;5.596;2022-11-11T13:37:17;8.40;;;7.60;;
17564;SDS011;62994;52.126;5.596;2022-11-11T13:40:02;9.50;;;7.88;;
17564;SDS011;62994;52.126;5.596;2022-11-11T13:43:03;9.38;;;6.88;;
17564;SDS011;62994;52.126;5.596;2022-11-11T13:45:52;7.63;;;7.05;;
17564;SDS011;62994;52.126;5.596;2022-11-11T13:48:25;8.52;;;7.75;;
17564;SDS011;62994;52.126;5.596;2022-11-11T13:54:23;8.60;;;7.63;;
17564;SDS011;62994;52.126;5.596;2022-11-11T13:57:01;7.28;;;6.60;;
17564;SDS011;62994;52.126;5.596;2022-11-11T13:59:50;7.25;;;6.65;;
17564;SDS011;62994;52.126;5.596;2022-11-11T14:02:39;8.13;;;6.68;;
17564;SDS011;62994;52.126;5.596;2022-11-11T14:12:03;7.63;;;6.90;;
17564;SDS011;62994;52.126;5.596;2022-11-11T14:20:37;10.95;;;6.35;;
17564;SDS011;62994;52.126;5.596;2022-11-11T14:23:30;8.57;;;6.22;;
17564;SDS011;62994;52.126;5.596;2022-11-11T14:29:15;7.43;;;6.82;;
17564;SDS011;62994;52.126;5.596;2022-11-11T14:33:13;7.50;;;6.20;;
17564;SDS011;62994;52.126;5.596;2022-11-11T14:35:34;7.45;;;6.85;;
17564;SDS011;62994;52.126;5.596;2022-11-11T14:44:41;9.10;;;6.85;;
17564;SDS011;62994;52.126;5.596;2022-11-11T14:47:40;7.68;;;7.07;;
17564;SDS011;62994;52.126;5.596;2022-11-11T14:56:13;7.68;;;7.03;;
17564;SDS011;62994;52.126;5.596;2022-11-11T14:58:47;7.10;;;6.45;;
17564;SDS011;62994;52.126;5.596;2022-11-11T15:01:17;7.13;;;6.43;;
17564;SDS011;62994;52.126;5.596;2022-11-11T15:04:05;7.38;;;6.30;;
17564;SDS011;62994;52.126;5.596;2022-11-11T15:06:40;6.53;;;6.00;;
17564;SDS011;62994;52.126;5.596;2022-11-11T15:09:41;6.85;;;6.45;;
17564;SDS011;62994;52.126;5.596;2022-11-11T15:12:51;6.78;;;6.07;;
17564;SDS011;62994;52.126;5.596;2022-11-11T15:15:47;8.98;;;6.80;;
17564;SDS011;62994;52.126;5.596;2022-11-11T15:18:41;6.65;;;6.22;;
17564;SDS011;62994;52.126;5.596;2022-11-11T15:21:42;7.13;;;6.53;;
17564;SDS011;62994;52.126;5.596;2022-11-11T15:24:57;6.82;;;6.28;;
17564;SDS011;62994;52.126;5.596;2022-11-11T15:31:32;6.25;;;5.85;;
17564;SDS011;62994;52.126;5.596;2022-11-11T15:37:45;8.15;;;7.45;;
17564;SDS011;62994;52.126;5.596;2022-11-11T15:40:44;6.15;;;5.65;;
17564;SDS011;62994;52.126;5.596;2022-11-11T15:43:43;8.82;;;6.03;;
17564;SDS011;62994;52.126;5.596;2022-11-11T15:46:56;6.90;;;6.28;;
17564;SDS011;62994;52.126;5.596;2022-11-11T15:50:03;6.38;;;5.88;;
17564;SDS011;62994;52.126;5.596;2022-11-11T15:52:56;6.75;;;6.20;;
17564;SDS011;62994;52.126;5.596;2022-11-11T15:55:40;6.70;;;6.30;;
17564;SDS011;62994;52.126;5.596;2022-11-11T15:58:32;6.15;;;5.68;;
17564;SDS011;62994;52.126;5.596;2022-11-11T16:01:27;6.50;;;6.03;;
17564;SDS011;62994;52.126;5.596;2022-11-11T16:05:45;7.18;;;6.57;;
17564;SDS011;62994;52.126;5.596;2022-11-11T16:07:43;6.20;;;5.72;;
17564;SDS011;62994;52.126;5.596;2022-11-11T16:14:00;6.57;;;5.95;;
17564;SDS011;62994;52.126;5.596;2022-11-11T16:16:43;7.82;;;5.60;;
17564;SDS011;62994;52.126;5.596;2022-11-11T16:19:24;6.03;;;5.50;;
17564;SDS011;62994;52.126;5.596;2022-11-11T16:22:03;8.40;;;6.30;;
17564;SDS011;62994;52.126;5.596;2022-11-11T16:24:39;6.13;;;5.63;;
17564;SDS011;62994;52.126;5.596;2022-11-11T16:27:17;8.35;;;6.72;;
17564;SDS011;62994;52.126;5.596;2022-11-11T16:30:25;5.97;;;5.47;;
17564;SDS011;62994;52.126;5.596;2022-11-11T16:33:02;5.85;;;5.43;;
17564;SDS011;62994;52.126;5.596;2022-11-11T16:35:43;6.18;;;5.68;;
17564;SDS011;62994;52.126;5.596;2022-11-11T16:40:55;5.28;;;4.88;;
17564;SDS011;62994;52.126;5.596;2022-11-11T16:43:49;5.15;;;4.80;;
17564;SDS011;62994;52.126;5.596;2022-11-11T16:46:42;5.40;;;5.00;;
17564;SDS011;62994;52.126;5.596;2022-11-11T16:49:23;6.22;;;5.72;;